Smartwings, Finnair, easyJet, Emirates. Nejlepší aerolinky za rok 2022 na Letišti Václava Havla Praha

27.01.23 Letiště Praha již podruhé po vzoru dalších mezinárodních letišť ocenilo nejlepší aerolinky za uplynulý rok. Titul nejvíce rozvíjející se dopravce získala tuzemská aerolinka Smartwings. Nejefektivnějším dopravcem s ohledem na provoz je dopravce Finnair. Ke dvěma kategoriím přibyl ještě titul Environmentálně nejzodpovědnější dopravce, který získala aerolinka easyJet. Ocenění získala také aerolinka Emirates za nejlepší využití marketingové podpory ve spolupráci s Letištěm Praha. Celý článek

Zájem o Tunisko roste, Čedok začne se Smartwings létat z Prahy na Djerbu

03.01.23 Dlouhé a široké pláže s jemným pískem, přibližně 320 slunečných dní v roce, tyrkysové Středozemní moře a krátká doba letu lákají stále více Čechů na dovolenou do Tuniska. Během nadcházející sezóny proto Čedok rozšíří svou nabídku letních destinací a přidává nově zájezdy na Djerbu. Celý článek

Zprávy

aktualizováno

06.02.23 Celý článek

Všechny zprávy    

Všechny články

Kurzy

Kalendář akcí

ICAO English Exam / Zkouška - každý pátek v měsíci
10.02.23 Online Worldwide Campus or Flying Academy Beranových 130 Praha
Austro Control Exam PPL / ATPL
14.02.23 Flying Academy Beranových 130 Praha
Austro Control Exam PPL / ATPL
15.02.23 Flying Academy Beranových 130 Praha
Austro Control Exam PPL / ATPL
16.02.23 Flying Academy Beranových 130 Praha
ICAO English Exam / Zkouška - každý pátek v měsíci
17.02.23 Online Worldwide Campus or Flying Academy Beranových 130 Praha

Všechny akce

Zeptejte se odborníka

Zkušený personál jedné z největších leteckých škol Flying Academy je připraven Vám pomoci s jakýmikoli otázkami týkajícími se letectví.

Zeptejte se

Newsletter

Přihlaste se k odběru novinek.

Aktuální počasí

LKKV
LKKV 060000Z 13002KT 9999 FEW018 M10/M12 Q1036

LKMT
LKMT 060000Z 06004KT 9999 SCT028 M07/M10 Q1039 NOSIG

LKPR
LKPR 060000Z VRB01KT CAVOK M06/M08 Q1037 NOSIG

LKTB
LKTB 060000Z 36004KT 9999 FEW029 M05/M09 Q1038 NOSIG

Briefing

Kurzy měn

AUD AUD 15.31 Kč
EUR EUR 23.92 Kč
GBP GBP 27.30 Kč
HUF HUF 6.04 Kč
CHF CHF 24.01 Kč
USD USD 22.10 Kč